createdAt,value
2019-01-02T00:04:52.297Z,5.00
2019-01-02T00:09:45.535Z,5.00
2019-01-02T00:14:38.546Z,5.00
2019-01-02T00:19:31.098Z,5.00
2019-01-02T00:24:23.494Z,5.00
2019-01-02T00:29:16.893Z,5.00
2019-01-02T00:34:09.206Z,5.00
2019-01-02T00:39:01.479Z,5.00
2019-01-02T00:43:53.725Z,5.00
2019-01-02T00:48:46.045Z,5.00
2019-01-02T00:53:38.365Z,5.00
2019-01-02T00:58:30.312Z,5.00
2019-01-02T01:03:22.546Z,5.00
2019-01-02T01:08:15.325Z,5.00
2019-01-02T01:13:07.957Z,5.00
2019-01-02T01:18:00.328Z,5.00
2019-01-02T01:22:52.697Z,5.00
2019-01-02T01:27:45.293Z,5.00
2019-01-02T01:32:37.960Z,5.00
2019-01-02T01:37:30.069Z,5.00
2019-01-02T01:42:22.749Z,4.90
2019-01-02T01:47:14.862Z,5.00
2019-01-02T01:52:07.385Z,5.00
2019-01-02T01:56:59.734Z,5.00
2019-01-02T02:01:52.444Z,5.00
2019-01-02T02:06:44.632Z,5.00
2019-01-02T02:11:37.138Z,5.00
2019-01-02T02:16:29.432Z,5.10
2019-01-02T02:21:21.845Z,5.00
2019-01-02T02:26:14.270Z,5.00
2019-01-02T02:31:07.170Z,5.00
2019-01-02T02:35:59.474Z,4.90
2019-01-02T02:40:51.888Z,5.00
2019-01-02T02:45:44.149Z,5.00
2019-01-02T02:50:36.808Z,5.00
2019-01-02T02:55:29.141Z,5.00
2019-01-02T03:00:21.635Z,5.00
2019-01-02T03:05:15.646Z,4.90
2019-01-02T03:10:13.613Z,4.90
2019-01-02T03:15:09.105Z,4.80
2019-01-02T03:20:01.462Z,4.90
2019-01-02T03:24:54.128Z,4.80
2019-01-02T03:29:46.506Z,4.80
2019-01-02T03:34:38.884Z,4.80
2019-01-02T03:39:31.010Z,4.80
2019-01-02T03:44:23.365Z,4.80
2019-01-02T03:49:15.472Z,4.80
2019-01-02T03:54:07.874Z,4.80
2019-01-02T03:59:00.381Z,4.90
2019-01-02T04:03:53.039Z,4.90
2019-01-02T04:08:45.685Z,4.80
2019-01-02T04:13:38.189Z,4.70
2019-01-02T04:18:30.318Z,4.60
2019-01-02T04:23:22.680Z,4.60
2019-01-02T04:28:16.213Z,4.50
2019-01-02T04:33:08.565Z,4.50
2019-01-02T04:38:00.609Z,4.50
2019-01-02T04:42:53.039Z,4.50
2019-01-02T04:47:45.133Z,4.50
2019-01-02T04:52:37.297Z,4.40
2019-01-02T04:57:29.689Z,4.40
2019-01-02T05:02:22.143Z,4.40
2019-01-02T05:07:14.551Z,4.30
2019-01-02T05:12:06.675Z,4.30
2019-01-02T05:16:58.913Z,4.10
2019-01-02T05:21:50.720Z,3.90
2019-01-02T05:26:42.957Z,3.70
2019-01-02T05:31:35.129Z,3.60
2019-01-02T05:36:27.575Z,3.50
2019-01-02T05:41:20.099Z,3.40
2019-01-02T05:46:12.556Z,3.30
2019-01-02T05:51:05.203Z,3.20
2019-01-02T05:55:57.729Z,3.20
2019-01-02T06:01:02.001Z,3.20
2019-01-02T06:05:55.137Z,3.20
2019-01-02T06:10:47.330Z,3.30
2019-01-02T06:15:39.653Z,3.30
2019-01-02T06:20:32.065Z,3.30
2019-01-02T06:25:24.076Z,3.40
2019-01-02T06:30:16.220Z,3.40
2019-01-02T06:35:09.236Z,3.30
2019-01-02T06:40:01.625Z,3.30
2019-01-02T06:44:53.999Z,3.30
2019-01-02T06:49:46.227Z,3.30
2019-01-02T06:54:38.946Z,3.30
2019-01-02T06:59:31.016Z,3.30
2019-01-02T07:04:22.868Z,3.20
2019-01-02T07:09:15.061Z,3.20
2019-01-02T07:14:07.417Z,3.10
2019-01-02T07:18:59.932Z,3.20
2019-01-02T07:23:52.084Z,3.20
2019-01-02T07:28:44.437Z,3.20
2019-01-02T07:33:39.833Z,3.30
2019-01-02T07:38:49.849Z,3.30
2019-01-02T07:43:50.685Z,3.30
2019-01-02T07:49:03.974Z,3.20
2019-01-02T07:54:19.695Z,3.20
2019-01-02T07:59:32.749Z,3.20
2019-01-02T08:04:45.565Z,3.40
2019-01-02T08:09:41.020Z,3.50
2019-01-02T08:14:39.109Z,3.60
2019-01-02T08:19:34.265Z,3.70
2019-01-02T08:24:35.304Z,3.80
2019-01-02T08:29:39.347Z,3.90
2019-01-02T08:34:49.519Z,4.00
2019-01-02T08:39:59.252Z,4.10
2019-01-02T08:45:19.802Z,4.10
2019-01-02T08:50:26.920Z,4.20
2019-01-02T08:55:25.194Z,4.30
2019-01-02T09:00:23.384Z,4.40
2019-01-02T09:05:39.162Z,4.40
2019-01-02T09:10:51.937Z,4.40
2019-01-02T09:15:59.079Z,4.50
2019-01-02T09:21:00.260Z,4.70
2019-01-02T09:26:07.530Z,4.70
2019-01-02T09:31:02.583Z,4.80
2019-01-02T09:36:06.639Z,4.90
2019-01-02T09:41:22.605Z,4.90
2019-01-02T09:46:27.077Z,4.90
2019-01-02T09:51:46.415Z,5.20
2019-01-02T10:02:42.392Z,6.10
2019-01-02T10:07:56.389Z,6.00
2019-01-02T10:13:00.879Z,5.70
2019-01-02T10:18:07.901Z,5.50
2019-01-02T10:23:11.838Z,5.30
2019-01-02T10:28:36.286Z,5.30
2019-01-02T10:33:37.393Z,5.20
2019-01-02T10:38:38.358Z,5.30
2019-01-02T10:43:45.248Z,5.50
2019-01-02T10:48:52.576Z,5.70
2019-01-02T11:00:10.372Z,5.60
2019-01-02T11:05:11.337Z,5.50
2019-01-02T11:10:09.638Z,5.60
2019-01-02T11:15:16.749Z,5.80
2019-01-02T11:20:19.002Z,5.90
2019-01-02T11:25:32.050Z,5.90
2019-01-02T11:30:41.449Z,5.80
2019-01-02T11:36:05.814Z,5.80
2019-01-02T11:41:12.953Z,5.90
2019-01-02T11:46:05.585Z,5.90
2019-01-02T11:50:58.300Z,6.10
2019-01-02T11:55:50.552Z,6.40
2019-01-02T12:00:42.921Z,6.70
2019-01-02T12:05:35.116Z,6.80
2019-01-02T12:10:27.221Z,6.90
2019-01-02T12:15:19.665Z,6.80
2019-01-02T12:20:11.905Z,6.70
2019-01-02T12:25:06.829Z,6.50
2019-01-02T12:29:58.987Z,6.40
2019-01-02T12:34:51.210Z,6.30
2019-01-02T12:39:44.004Z,6.20
2019-01-02T12:44:36.639Z,6.20
2019-01-02T12:49:29.361Z,6.10
2019-01-02T12:54:21.633Z,6.00
2019-01-02T12:59:16.862Z,5.90
2019-01-02T13:04:32.765Z,5.90
2019-01-02T13:09:30.946Z,5.80
2019-01-02T13:14:47.165Z,5.70
2019-01-02T13:20:01.777Z,5.70
2019-01-02T13:25:03.045Z,5.70
2019-01-02T13:30:19.139Z,5.60
2019-01-02T13:35:14.485Z,5.60
2019-01-02T13:40:18.308Z,5.70
2019-01-02T13:45:13.397Z,5.70
2019-01-02T13:50:32.561Z,5.70
2019-01-02T13:55:24.754Z,5.70
2019-01-02T14:00:17.014Z,5.70
2019-01-02T14:05:12.460Z,5.80
2019-01-02T14:10:06.808Z,5.90
2019-01-02T14:14:59.184Z,5.90
2019-01-02T14:19:51.424Z,5.80
2019-01-02T14:24:43.676Z,5.90
2019-01-02T14:29:36.222Z,5.90
2019-01-02T14:34:28.667Z,5.80
2019-01-02T14:39:21.105Z,5.70
2019-01-02T14:44:13.536Z,5.70
2019-01-02T14:49:07.400Z,5.60
2019-01-02T14:54:03.878Z,5.60
2019-01-02T14:58:56.837Z,5.50
2019-01-02T15:03:49.103Z,5.50
2019-01-02T15:08:45.444Z,5.40
2019-01-02T15:13:38.277Z,5.30
2019-01-02T15:18:34.586Z,5.30
2019-01-02T15:23:26.889Z,5.20
2019-01-02T15:28:19.055Z,5.10
2019-01-02T15:33:11.022Z,5.10
2019-01-02T15:38:03.401Z,5.10
2019-01-02T15:42:55.525Z,5.00
2019-01-02T15:47:47.564Z,5.00
2019-01-02T15:52:59.494Z,5.00
2019-01-02T15:57:51.774Z,5.00
2019-01-02T16:02:44.000Z,5.00
2019-01-02T16:07:36.459Z,5.00
2019-01-02T16:12:28.424Z,4.90
2019-01-02T16:17:20.696Z,4.90
2019-01-02T16:22:12.882Z,4.80
2019-01-02T16:27:05.332Z,4.60
2019-01-02T16:31:57.509Z,4.50
2019-01-02T16:36:49.885Z,4.20
2019-01-02T16:41:41.980Z,4.10
2019-01-02T16:46:34.441Z,3.90
2019-01-02T16:51:27.000Z,3.80
2019-01-02T16:56:19.116Z,3.70
2019-01-02T17:01:11.613Z,3.50
2019-01-02T17:06:04.253Z,3.40
2019-01-02T17:10:56.726Z,3.30
2019-01-02T17:15:49.241Z,3.10
2019-01-02T17:20:41.406Z,2.90
2019-01-02T17:25:33.933Z,2.70
2019-01-02T17:30:26.392Z,2.50
2019-01-02T17:35:18.727Z,2.30
2019-01-02T17:40:11.125Z,2.30
2019-01-02T17:45:03.301Z,2.30
2019-01-02T17:49:55.712Z,2.30
2019-01-02T17:54:48.223Z,2.10
2019-01-02T17:59:40.345Z,1.90
2019-01-02T18:04:32.973Z,1.70
2019-01-02T18:09:26.257Z,1.60
2019-01-02T18:14:18.992Z,1.50
2019-01-02T18:19:11.247Z,1.30
2019-01-02T18:24:03.653Z,1.20
2019-01-02T18:28:55.998Z,1.10
2019-01-02T18:33:48.234Z,1.00
2019-01-02T18:38:40.334Z,1.00
2019-01-02T18:43:32.741Z,0.90
2019-01-02T18:48:25.186Z,0.90
2019-01-02T18:53:17.499Z,0.70
2019-01-02T18:58:09.701Z,0.60
2019-01-02T19:03:02.088Z,0.50
2019-01-02T19:07:54.434Z,0.50
2019-01-02T19:12:46.785Z,0.40
2019-01-02T19:17:39.208Z,0.40
2019-01-02T19:22:31.384Z,0.40
2019-01-02T19:27:23.502Z,0.30
2019-01-02T19:32:15.539Z,0.30
2019-01-02T19:37:07.945Z,0.30
2019-01-02T19:42:00.222Z,0.20
2019-01-02T19:46:52.630Z,0.20
2019-01-02T19:51:45.305Z,0.20
2019-01-02T19:56:37.893Z,0.00
2019-01-02T20:01:30.026Z,0.00
2019-01-02T20:06:22.536Z,0.00
2019-01-02T20:11:14.719Z,-0.10
2019-01-02T20:16:07.364Z,-0.10
2019-01-02T20:20:59.645Z,-0.20
2019-01-02T20:25:52.336Z,-0.20
2019-01-02T20:30:44.626Z,-0.20
2019-01-02T20:35:37.253Z,-0.30
2019-01-02T20:40:29.206Z,-0.30
2019-01-02T20:45:21.760Z,-0.40
2019-01-02T20:50:14.326Z,-0.40
2019-01-02T20:55:07.875Z,-0.40
2019-01-02T21:00:00.269Z,-0.60
2019-01-02T21:04:52.522Z,-0.70
2019-01-02T21:09:45.020Z,-0.70
2019-01-02T21:14:36.974Z,-0.70
2019-01-02T21:19:29.146Z,-0.80
2019-01-02T21:24:29.838Z,-0.90
2019-01-02T21:29:21.877Z,-0.90
2019-01-02T21:34:21.385Z,-0.90
2019-01-02T21:39:15.207Z,-1.00
2019-01-02T21:44:07.311Z,-0.90
2019-01-02T21:48:59.940Z,-0.70
2019-01-02T21:53:52.414Z,-0.60
2019-01-02T21:58:44.940Z,-0.50
2019-01-02T22:03:37.253Z,-0.40
2019-01-02T22:08:29.830Z,-0.30
2019-01-02T22:13:26.309Z,-0.20
2019-01-02T22:18:19.148Z,0.00
2019-01-02T22:23:33.489Z,0.00
2019-01-02T22:33:32.184Z,0.00
2019-01-02T22:38:26.034Z,0.00
2019-01-02T22:43:27.981Z,-0.10
2019-01-02T22:48:22.719Z,0.00
2019-01-02T22:53:15.017Z,0.00
2019-01-02T22:58:08.044Z,0.00
2019-01-02T23:08:11.678Z,0.00
2019-01-02T23:13:21.838Z,0.00
2019-01-02T23:18:23.042Z,0.10
2019-01-02T23:23:33.831Z,0.10
2019-01-02T23:28:43.657Z,0.10
2019-01-02T23:33:53.619Z,0.20
2019-01-02T23:38:53.475Z,0.20
2019-01-02T23:44:02.041Z,0.20
2019-01-02T23:49:07.769Z,0.20
2019-01-02T23:54:07.513Z,0.10
2019-01-02T23:59:01.137Z,0.10
